sensor_id;sensor_type;location;lat;lon;timestamp;P1;durP1;ratioP1;P2;durP2;ratioP2
51296;SDS011;37380;45.186;9.792;2023-06-24T00:02:24;37.25;;;17.52;;
51296;SDS011;37380;45.186;9.792;2023-06-24T00:04:52;25.05;;;16.98;;
51296;SDS011;37380;45.186;9.792;2023-06-24T00:07:19;30.80;;;18.17;;
51296;SDS011;37380;45.186;9.792;2023-06-24T00:09:49;28.77;;;19.63;;
51296;SDS011;37380;45.186;9.792;2023-06-24T00:12:19;24.05;;;18.15;;
51296;SDS011;37380;45.186;9.792;2023-06-24T00:14:47;24.55;;;18.15;;
51296;SDS011;37380;45.186;9.792;2023-06-24T00:17:15;28.70;;;17.60;;
51296;SDS011;37380;45.186;9.792;2023-06-24T00:19:43;31.15;;;19.73;;
51296;SDS011;37380;45.186;9.792;2023-06-24T00:22:10;22.25;;;18.00;;
51296;SDS011;37380;45.186;9.792;2023-06-24T00:24:41;26.08;;;19.58;;
51296;SDS011;37380;45.186;9.792;2023-06-24T00:27:10;27.95;;;18.85;;
51296;SDS011;37380;45.186;9.792;2023-06-24T00:29:37;22.83;;;18.17;;
51296;SDS011;37380;45.186;9.792;2023-06-24T00:32:04;23.60;;;20.35;;
51296;SDS011;37380;45.186;9.792;2023-06-24T00:34:32;29.25;;;19.27;;
51296;SDS011;37380;45.186;9.792;2023-06-24T00:37:00;21.38;;;18.90;;
51296;SDS011;37380;45.186;9.792;2023-06-24T00:39:29;26.15;;;20.95;;
51296;SDS011;37380;45.186;9.792;2023-06-24T00:41:57;28.95;;;21.83;;
51296;SDS011;37380;45.186;9.792;2023-06-24T00:44:24;24.08;;;20.50;;
51296;SDS011;37380;45.186;9.792;2023-06-24T00:46:51;26.90;;;20.85;;
51296;SDS011;37380;45.186;9.792;2023-06-24T00:49:18;32.28;;;22.88;;
51296;SDS011;37380;45.186;9.792;2023-06-24T00:51:45;30.83;;;23.25;;
51296;SDS011;37380;45.186;9.792;2023-06-24T00:54:18;33.80;;;21.77;;
51296;SDS011;37380;45.186;9.792;2023-06-24T00:56:45;40.40;;;24.77;;
51296;SDS011;37380;45.186;9.792;2023-06-24T00:59:16;40.67;;;22.95;;
51296;SDS011;37380;45.186;9.792;2023-06-24T01:01:45;28.10;;;22.13;;
51296;SDS011;37380;45.186;9.792;2023-06-24T01:04:13;34.47;;;24.77;;
51296;SDS011;37380;45.186;9.792;2023-06-24T01:06:40;35.13;;;25.67;;
51296;SDS011;37380;45.186;9.792;2023-06-24T01:09:11;27.67;;;22.60;;
51296;SDS011;37380;45.186;9.792;2023-06-24T01:11:39;34.47;;;25.05;;
51296;SDS011;37380;45.186;9.792;2023-06-24T01:14:06;27.92;;;24.92;;
51296;SDS011;37380;45.186;9.792;2023-06-24T01:27:19;30.35;;;26.55;;
51296;SDS011;37380;45.186;9.792;2023-06-24T01:30:06;31.98;;;25.58;;
51296;SDS011;37380;45.186;9.792;2023-06-24T01:32:38;32.38;;;24.48;;
51296;SDS011;37380;45.186;9.792;2023-06-24T01:35:13;40.13;;;27.98;;
51296;SDS011;37380;45.186;9.792;2023-06-24T01:37:53;38.33;;;26.85;;
51296;SDS011;37380;45.186;9.792;2023-06-24T01:40:37;35.13;;;27.17;;
51296;SDS011;37380;45.186;9.792;2023-06-24T01:43:08;34.20;;;29.23;;
51296;SDS011;37380;45.186;9.792;2023-06-24T01:45:37;32.28;;;28.45;;
51296;SDS011;37380;45.186;9.792;2023-06-24T01:48:13;46.22;;;28.65;;
51296;SDS011;37380;45.186;9.792;2023-06-24T01:50:44;39.78;;;29.70;;
51296;SDS011;37380;45.186;9.792;2023-06-24T01:53:21;41.45;;;27.75;;
51296;SDS011;37380;45.186;9.792;2023-06-24T01:55:51;35.33;;;28.80;;
51296;SDS011;37380;45.186;9.792;2023-06-24T01:58:22;34.40;;;29.35;;
51296;SDS011;37380;45.186;9.792;2023-06-24T02:00:50;39.90;;;29.02;;
51296;SDS011;37380;45.186;9.792;2023-06-24T02:03:18;38.08;;;28.88;;
51296;SDS011;37380;45.186;9.792;2023-06-24T02:05:46;35.47;;;30.52;;
51296;SDS011;37380;45.186;9.792;2023-06-24T02:08:18;44.10;;;29.75;;
51296;SDS011;37380;45.186;9.792;2023-06-24T02:10:51;37.67;;;29.88;;
51296;SDS011;37380;45.186;9.792;2023-06-24T02:13:23;39.13;;;30.25;;
51296;SDS011;37380;45.186;9.792;2023-06-24T02:15:52;34.87;;;31.03;;
51296;SDS011;37380;45.186;9.792;2023-06-24T02:18:20;32.60;;;27.75;;
51296;SDS011;37380;45.186;9.792;2023-06-24T02:20:50;34.72;;;29.58;;
51296;SDS011;37380;45.186;9.792;2023-06-24T02:23:19;33.47;;;29.33;;
51296;SDS011;37380;45.186;9.792;2023-06-24T02:25:49;38.83;;;28.60;;
51296;SDS011;37380;45.186;9.792;2023-06-24T02:28:17;34.55;;;28.90;;
51296;SDS011;37380;45.186;9.792;2023-06-24T02:30:45;34.20;;;29.73;;
51296;SDS011;37380;45.186;9.792;2023-06-24T02:33:14;36.88;;;31.90;;
51296;SDS011;37380;45.186;9.792;2023-06-24T02:35:43;40.45;;;29.67;;
51296;SDS011;37380;45.186;9.792;2023-06-24T02:38:17;39.10;;;32.72;;
51296;SDS011;37380;45.186;9.792;2023-06-24T02:40:46;46.05;;;33.63;;
51296;SDS011;37380;45.186;9.792;2023-06-24T02:43:14;38.05;;;34.08;;
51296;SDS011;37380;45.186;9.792;2023-06-24T02:45:41;42.83;;;33.05;;
51296;SDS011;37380;45.186;9.792;2023-06-24T02:48:08;41.83;;;33.83;;
51296;SDS011;37380;45.186;9.792;2023-06-24T02:50:37;37.88;;;32.55;;
51296;SDS011;37380;45.186;9.792;2023-06-24T02:53:08;40.85;;;33.20;;
51296;SDS011;37380;45.186;9.792;2023-06-24T02:55:37;44.20;;;33.83;;
51296;SDS011;37380;45.186;9.792;2023-06-24T02:58:06;45.80;;;34.08;;
51296;SDS011;37380;45.186;9.792;2023-06-24T03:00:41;43.60;;;34.17;;
51296;SDS011;37380;45.186;9.792;2023-06-24T03:03:08;41.90;;;30.48;;
51296;SDS011;37380;45.186;9.792;2023-06-24T03:06:03;40.03;;;34.78;;
51296;SDS011;37380;45.186;9.792;2023-06-24T03:08:31;39.35;;;35.13;;
51296;SDS011;37380;45.186;9.792;2023-06-24T03:10:58;48.95;;;33.58;;
51296;SDS011;37380;45.186;9.792;2023-06-24T03:13:31;57.90;;;33.88;;
51296;SDS011;37380;45.186;9.792;2023-06-24T03:16:10;35.97;;;32.17;;
51296;SDS011;37380;45.186;9.792;2023-06-24T03:19:05;42.10;;;33.13;;
51296;SDS011;37380;45.186;9.792;2023-06-24T03:21:33;38.63;;;33.83;;
51296;SDS011;37380;45.186;9.792;2023-06-24T03:24:06;43.28;;;36.35;;
51296;SDS011;37380;45.186;9.792;2023-06-24T03:26:36;43.58;;;37.20;;
51296;SDS011;37380;45.186;9.792;2023-06-24T03:29:06;40.58;;;35.50;;
51296;SDS011;37380;45.186;9.792;2023-06-24T03:31:45;44.08;;;34.67;;
51296;SDS011;37380;45.186;9.792;2023-06-24T03:34:20;39.78;;;35.75;;
51296;SDS011;37380;45.186;9.792;2023-06-24T03:36:47;42.60;;;37.70;;
51296;SDS011;37380;45.186;9.792;2023-06-24T03:39:15;37.83;;;33.80;;
51296;SDS011;37380;45.186;9.792;2023-06-24T03:41:42;37.90;;;33.95;;
51296;SDS011;37380;45.186;9.792;2023-06-24T03:44:11;39.83;;;35.83;;
51296;SDS011;37380;45.186;9.792;2023-06-24T03:46:39;50.08;;;38.67;;
51296;SDS011;37380;45.186;9.792;2023-06-24T03:49:09;51.20;;;37.50;;
51296;SDS011;37380;45.186;9.792;2023-06-24T03:51:36;44.35;;;33.83;;
51296;SDS011;37380;45.186;9.792;2023-06-24T03:54:03;40.13;;;35.13;;
51296;SDS011;37380;45.186;9.792;2023-06-24T03:56:30;36.90;;;33.03;;
51296;SDS011;37380;45.186;9.792;2023-06-24T03:58:57;40.75;;;34.03;;
51296;SDS011;37380;45.186;9.792;2023-06-24T04:01:25;44.95;;;34.60;;
51296;SDS011;37380;45.186;9.792;2023-06-24T04:03:52;41.55;;;34.97;;
51296;SDS011;37380;45.186;9.792;2023-06-24T04:06:19;44.08;;;37.65;;
51296;SDS011;37380;45.186;9.792;2023-06-24T04:08:46;42.25;;;37.80;;
51296;SDS011;37380;45.186;9.792;2023-06-24T04:11:15;44.33;;;37.58;;
51296;SDS011;37380;45.186;9.792;2023-06-24T04:13:42;42.03;;;35.20;;
51296;SDS011;37380;45.186;9.792;2023-06-24T04:16:10;48.55;;;32.08;;
51296;SDS011;37380;45.186;9.792;2023-06-24T04:18:37;41.40;;;30.88;;
51296;SDS011;37380;45.186;9.792;2023-06-24T04:21:06;51.92;;;33.53;;
51296;SDS011;37380;45.186;9.792;2023-06-24T04:23:33;51.00;;;33.78;;
51296;SDS011;37380;45.186;9.792;2023-06-24T04:26:01;37.75;;;31.63;;
51296;SDS011;37380;45.186;9.792;2023-06-24T04:28:28;40.88;;;29.50;;
51296;SDS011;37380;45.186;9.792;2023-06-24T04:30:56;55.67;;;31.38;;
51296;SDS011;37380;45.186;9.792;2023-06-24T04:33:25;39.60;;;29.13;;
51296;SDS011;37380;45.186;9.792;2023-06-24T04:35:52;35.63;;;31.25;;
51296;SDS011;37380;45.186;9.792;2023-06-24T04:38:23;39.40;;;28.25;;
51296;SDS011;37380;45.186;9.792;2023-06-24T04:40:51;44.80;;;29.58;;
51296;SDS011;37380;45.186;9.792;2023-06-24T04:43:23;47.33;;;31.63;;
51296;SDS011;37380;45.186;9.792;2023-06-24T04:45:50;40.95;;;31.58;;
51296;SDS011;37380;45.186;9.792;2023-06-24T04:48:17;40.40;;;31.55;;
51296;SDS011;37380;45.186;9.792;2023-06-24T04:50:44;34.20;;;29.55;;
51296;SDS011;37380;45.186;9.792;2023-06-24T04:53:13;42.95;;;31.98;;
51296;SDS011;37380;45.186;9.792;2023-06-24T04:55:41;60.30;;;30.35;;
51296;SDS011;37380;45.186;9.792;2023-06-24T04:58:08;38.75;;;34.47;;
51296;SDS011;37380;45.186;9.792;2023-06-24T05:00:35;38.42;;;31.85;;
51296;SDS011;37380;45.186;9.792;2023-06-24T05:03:04;32.58;;;28.85;;
51296;SDS011;37380;45.186;9.792;2023-06-24T05:05:32;41.45;;;27.40;;
51296;SDS011;37380;45.186;9.792;2023-06-24T05:08:02;30.35;;;23.80;;
51296;SDS011;37380;45.186;9.792;2023-06-24T05:10:29;44.28;;;23.65;;
51296;SDS011;37380;45.186;9.792;2023-06-24T05:12:56;31.33;;;23.05;;
51296;SDS011;37380;45.186;9.792;2023-06-24T05:15:28;25.73;;;22.65;;
51296;SDS011;37380;45.186;9.792;2023-06-24T05:17:57;30.65;;;22.77;;
51296;SDS011;37380;45.186;9.792;2023-06-24T05:20:24;29.70;;;24.20;;
51296;SDS011;37380;45.186;9.792;2023-06-24T05:22:52;30.25;;;22.80;;
51296;SDS011;37380;45.186;9.792;2023-06-24T05:25:24;27.70;;;23.90;;
51296;SDS011;37380;45.186;9.792;2023-06-24T05:27:52;29.25;;;23.98;;
51296;SDS011;37380;45.186;9.792;2023-06-24T05:30:20;26.40;;;22.15;;
51296;SDS011;37380;45.186;9.792;2023-06-24T05:32:47;27.20;;;21.90;;
51296;SDS011;37380;45.186;9.792;2023-06-24T05:35:14;32.17;;;22.88;;
51296;SDS011;37380;45.186;9.792;2023-06-24T05:37:42;37.45;;;23.27;;
51296;SDS011;37380;45.186;9.792;2023-06-24T05:40:09;31.90;;;21.48;;
51296;SDS011;37380;45.186;9.792;2023-06-24T05:42:36;25.08;;;19.70;;
51296;SDS011;37380;45.186;9.792;2023-06-24T05:45:04;24.50;;;21.90;;
51296;SDS011;37380;45.186;9.792;2023-06-24T05:47:33;23.50;;;20.63;;
51296;SDS011;37380;45.186;9.792;2023-06-24T05:50:01;23.85;;;21.27;;
51296;SDS011;37380;45.186;9.792;2023-06-24T05:52:29;30.42;;;20.60;;
51296;SDS011;37380;45.186;9.792;2023-06-24T05:54:56;30.55;;;21.50;;
51296;SDS011;37380;45.186;9.792;2023-06-24T05:57:23;22.63;;;19.65;;
51296;SDS011;37380;45.186;9.792;2023-06-24T05:59:50;20.60;;;18.35;;
51296;SDS011;37380;45.186;9.792;2023-06-24T06:02:18;22.80;;;19.80;;
51296;SDS011;37380;45.186;9.792;2023-06-24T06:04:46;32.72;;;21.05;;
51296;SDS011;37380;45.186;9.792;2023-06-24T06:07:14;23.92;;;18.58;;
51296;SDS011;37380;45.186;9.792;2023-06-24T06:09:41;18.80;;;16.38;;
51296;SDS011;37380;45.186;9.792;2023-06-24T06:12:10;30.23;;;16.98;;
51296;SDS011;37380;45.186;9.792;2023-06-24T06:14:37;28.98;;;21.08;;
51296;SDS011;37380;45.186;9.792;2023-06-24T06:17:05;28.63;;;20.13;;
51296;SDS011;37380;45.186;9.792;2023-06-24T06:19:32;27.45;;;19.13;;
51296;SDS011;37380;45.186;9.792;2023-06-24T06:21:59;27.10;;;18.90;;
51296;SDS011;37380;45.186;9.792;2023-06-24T06:24:26;25.65;;;17.65;;
51296;SDS011;37380;45.186;9.792;2023-06-24T06:26:54;22.75;;;20.55;;
51296;SDS011;37380;45.186;9.792;2023-06-24T06:29:21;24.60;;;20.08;;
51296;SDS011;37380;45.186;9.792;2023-06-24T06:31:48;22.33;;;20.10;;
51296;SDS011;37380;45.186;9.792;2023-06-24T06:34:15;23.05;;;19.73;;
51296;SDS011;37380;45.186;9.792;2023-06-24T06:36:42;30.40;;;18.77;;
51296;SDS011;37380;45.186;9.792;2023-06-24T06:39:16;23.50;;;18.80;;
51296;SDS011;37380;45.186;9.792;2023-06-24T06:41:43;26.45;;;16.08;;
51296;SDS011;37380;45.186;9.792;2023-06-24T06:44:15;24.17;;;15.60;;
51296;SDS011;37380;45.186;9.792;2023-06-24T06:46:44;16.80;;;13.60;;
51296;SDS011;37380;45.186;9.792;2023-06-24T06:49:11;15.93;;;14.45;;
51296;SDS011;37380;45.186;9.792;2023-06-24T06:51:38;18.73;;;13.18;;
51296;SDS011;37380;45.186;9.792;2023-06-24T06:54:05;19.67;;;12.98;;
51296;SDS011;37380;45.186;9.792;2023-06-24T06:56:32;15.07;;;11.60;;
51296;SDS011;37380;45.186;9.792;2023-06-24T06:58:59;22.90;;;12.25;;
51296;SDS011;37380;45.186;9.792;2023-06-24T07:01:26;23.02;;;14.18;;
51296;SDS011;37380;45.186;9.792;2023-06-24T07:03:53;14.65;;;12.18;;
51296;SDS011;37380;45.186;9.792;2023-06-24T07:06:20;12.73;;;11.40;;
51296;SDS011;37380;45.186;9.792;2023-06-24T07:08:48;18.30;;;12.65;;
51296;SDS011;37380;45.186;9.792;2023-06-24T07:11:15;13.68;;;11.07;;
51296;SDS011;37380;45.186;9.792;2023-06-24T07:13:45;14.90;;;13.48;;
51296;SDS011;37380;45.186;9.792;2023-06-24T07:16:12;14.85;;;13.23;;
51296;SDS011;37380;45.186;9.792;2023-06-24T07:18:39;14.35;;;12.85;;
51296;SDS011;37380;45.186;9.792;2023-06-24T07:21:08;14.95;;;12.75;;
51296;SDS011;37380;45.186;9.792;2023-06-24T07:23:35;13.45;;;12.05;;
51296;SDS011;37380;45.186;9.792;2023-06-24T07:26:02;20.35;;;11.88;;
51296;SDS011;37380;45.186;9.792;2023-06-24T07:28:30;13.73;;;12.25;;
51296;SDS011;37380;45.186;9.792;2023-06-24T07:30:57;15.00;;;11.00;;
51296;SDS011;37380;45.186;9.792;2023-06-24T07:33:25;13.70;;;12.00;;
51296;SDS011;37380;45.186;9.792;2023-06-24T07:35:54;19.83;;;12.20;;
51296;SDS011;37380;45.186;9.792;2023-06-24T07:38:24;26.60;;;14.50;;
51296;SDS011;37380;45.186;9.792;2023-06-24T07:40:53;24.83;;;15.00;;
51296;SDS011;37380;45.186;9.792;2023-06-24T07:43:23;15.65;;;13.43;;
51296;SDS011;37380;45.186;9.792;2023-06-24T07:45:54;22.67;;;12.90;;
51296;SDS011;37380;45.186;9.792;2023-06-24T07:48:21;18.05;;;12.23;;
51296;SDS011;37380;45.186;9.792;2023-06-24T07:50:49;12.18;;;10.90;;
51296;SDS011;37380;45.186;9.792;2023-06-24T07:53:16;12.25;;;8.95;;
51296;SDS011;37380;45.186;9.792;2023-06-24T07:55:43;10.15;;;8.25;;
51296;SDS011;37380;45.186;9.792;2023-06-24T07:58:10;6.88;;;6.15;;
51296;SDS011;37380;45.186;9.792;2023-06-24T08:00:37;5.05;;;3.20;;
51296;SDS011;37380;45.186;9.792;2023-06-24T08:03:12;3.85;;;2.67;;
51296;SDS011;37380;45.186;9.792;2023-06-24T08:05:40;3.83;;;2.08;;
51296;SDS011;37380;45.186;9.792;2023-06-24T08:08:07;5.57;;;2.53;;
51296;SDS011;37380;45.186;9.792;2023-06-24T08:10:37;2.58;;;2.00;;
51296;SDS011;37380;45.186;9.792;2023-06-24T08:13:04;1.65;;;1.55;;
51296;SDS011;37380;45.186;9.792;2023-06-24T08:15:31;2.28;;;1.85;;
51296;SDS011;37380;45.186;9.792;2023-06-24T08:17:59;1.40;;;1.30;;
51296;SDS011;37380;45.186;9.792;2023-06-24T08:20:26;2.67;;;1.77;;
51296;SDS011;37380;45.186;9.792;2023-06-24T08:22:53;2.50;;;1.90;;
51296;SDS011;37380;45.186;9.792;2023-06-24T08:25:22;2.85;;;1.88;;
51296;SDS011;37380;45.186;9.792;2023-06-24T08:27:49;6.80;;;1.58;;
51296;SDS011;37380;45.186;9.792;2023-06-24T08:30:17;2.30;;;2.10;;
51296;SDS011;37380;45.186;9.792;2023-06-24T08:32:44;2.95;;;2.00;;
51296;SDS011;37380;45.186;9.792;2023-06-24T08:35:13;6.82;;;2.22;;
51296;SDS011;37380;45.186;9.792;2023-06-24T08:37:40;2.67;;;1.98;;
51296;SDS011;37380;45.186;9.792;2023-06-24T08:40:10;2.42;;;2.22;;
51296;SDS011;37380;45.186;9.792;2023-06-24T08:42:40;6.55;;;1.83;;
51296;SDS011;37380;45.186;9.792;2023-06-24T08:45:07;3.13;;;2.38;;
51296;SDS011;37380;45.186;9.792;2023-06-24T08:47:35;7.50;;;2.47;;
51296;SDS011;37380;45.186;9.792;2023-06-24T08:50:04;5.85;;;3.00;;
51296;SDS011;37380;45.186;9.792;2023-06-24T08:52:50;3.65;;;2.53;;
51296;SDS011;37380;45.186;9.792;2023-06-24T08:57:49;2.53;;;2.33;;
51296;SDS011;37380;45.186;9.792;2023-06-24T09:00:18;3.95;;;2.80;;
51296;SDS011;37380;45.186;9.792;2023-06-24T09:02:45;11.25;;;2.60;;
51296;SDS011;37380;45.186;9.792;2023-06-24T09:05:13;3.47;;;2.53;;
51296;SDS011;37380;45.186;9.792;2023-06-24T09:07:40;4.15;;;2.80;;
51296;SDS011;37380;45.186;9.792;2023-06-24T09:10:07;7.95;;;2.70;;
51296;SDS011;37380;45.186;9.792;2023-06-24T09:12:35;5.25;;;3.00;;
51296;SDS011;37380;45.186;9.792;2023-06-24T09:15:02;7.75;;;3.65;;
51296;SDS011;37380;45.186;9.792;2023-06-24T09:17:31;5.60;;;3.35;;
51296;SDS011;37380;45.186;9.792;2023-06-24T09:20:03;7.75;;;2.65;;
51296;SDS011;37380;45.186;9.792;2023-06-24T09:22:31;6.47;;;2.78;;
51296;SDS011;37380;45.186;9.792;2023-06-24T09:25:00;4.50;;;3.80;;
51296;SDS011;37380;45.186;9.792;2023-06-24T09:27:34;5.18;;;3.35;;
51296;SDS011;37380;45.186;9.792;2023-06-24T09:30:16;8.40;;;2.90;;
51296;SDS011;37380;45.186;9.792;2023-06-24T09:32:47;8.75;;;2.60;;
51296;SDS011;37380;45.186;9.792;2023-06-24T09:35:19;9.73;;;2.90;;
51296;SDS011;37380;45.186;9.792;2023-06-24T09:40:19;4.38;;;3.97;;
51296;SDS011;37380;45.186;9.792;2023-06-24T09:42:54;12.02;;;4.22;;
51296;SDS011;37380;45.186;9.792;2023-06-24T09:45:24;16.45;;;4.80;;
51296;SDS011;37380;45.186;9.792;2023-06-24T09:48:02;3.45;;;3.03;;
51296;SDS011;37380;45.186;9.792;2023-06-24T09:50:32;6.32;;;3.17;;
51296;SDS011;37380;45.186;9.792;2023-06-24T09:53:00;7.60;;;4.03;;
51296;SDS011;37380;45.186;9.792;2023-06-24T09:55:28;4.05;;;2.58;;
51296;SDS011;37380;45.186;9.792;2023-06-24T09:57:55;7.20;;;2.97;;
51296;SDS011;37380;45.186;9.792;2023-06-24T10:00:22;9.88;;;2.70;;
51296;SDS011;37380;45.186;9.792;2023-06-24T10:02:54;3.28;;;2.70;;
51296;SDS011;37380;45.186;9.792;2023-06-24T10:05:26;3.17;;;2.88;;
51296;SDS011;37380;45.186;9.792;2023-06-24T10:07:54;8.45;;;3.00;;
51296;SDS011;37380;45.186;9.792;2023-06-24T10:10:23;16.42;;;3.67;;
51296;SDS011;37380;45.186;9.792;2023-06-24T10:12:51;5.10;;;4.38;;
51296;SDS011;37380;45.186;9.792;2023-06-24T10:15:21;10.88;;;3.67;;
51296;SDS011;37380;45.186;9.792;2023-06-24T10:17:50;8.65;;;3.75;;
51296;SDS011;37380;45.186;9.792;2023-06-24T10:20:27;5.05;;;3.40;;
51296;SDS011;37380;45.186;9.792;2023-06-24T10:22:58;4.15;;;2.63;;
51296;SDS011;37380;45.186;9.792;2023-06-24T10:25:27;6.57;;;3.45;;
51296;SDS011;37380;45.186;9.792;2023-06-24T10:28:03;3.28;;;2.97;;
51296;SDS011;37380;45.186;9.792;2023-06-24T10:30:32;5.95;;;4.43;;
51296;SDS011;37380;45.186;9.792;2023-06-24T10:33:01;4.95;;;2.40;;
51296;SDS011;37380;45.186;9.792;2023-06-24T10:35:29;8.23;;;3.22;;
51296;SDS011;37380;45.186;9.792;2023-06-24T10:37:58;2.72;;;2.30;;
51296;SDS011;37380;45.186;9.792;2023-06-24T10:40:42;5.28;;;3.17;;
51296;SDS011;37380;45.186;9.792;2023-06-24T10:45:53;5.32;;;2.83;;
51296;SDS011;37380;45.186;9.792;2023-06-24T10:48:28;9.32;;;2.60;;
51296;SDS011;37380;45.186;9.792;2023-06-24T10:50:58;2.65;;;2.20;;
51296;SDS011;37380;45.186;9.792;2023-06-24T10:53:26;2.50;;;2.20;;
51296;SDS011;37380;45.186;9.792;2023-06-24T10:55:56;2.60;;;2.20;;
51296;SDS011;37380;45.186;9.792;2023-06-24T10:58:25;17.30;;;2.53;;
51296;SDS011;37380;45.186;9.792;2023-06-24T11:00:53;2.20;;;2.08;;
51296;SDS011;37380;45.186;9.792;2023-06-24T11:03:22;4.45;;;2.65;;
51296;SDS011;37380;45.186;9.792;2023-06-24T11:05:49;2.65;;;2.08;;
51296;SDS011;37380;45.186;9.792;2023-06-24T11:08:16;2.53;;;2.08;;
51296;SDS011;37380;45.186;9.792;2023-06-24T11:10:47;6.53;;;2.20;;
51296;SDS011;37380;45.186;9.792;2023-06-24T11:13:22;2.33;;;2.00;;
51296;SDS011;37380;45.186;9.792;2023-06-24T11:15:50;2.00;;;1.88;;
51296;SDS011;37380;45.186;9.792;2023-06-24T11:18:19;3.00;;;1.88;;
51296;SDS011;37380;45.186;9.792;2023-06-24T11:20:47;2.42;;;1.98;;
51296;SDS011;37380;45.186;9.792;2023-06-24T11:23:15;3.70;;;2.60;;
51296;SDS011;37380;45.186;9.792;2023-06-24T11:25:43;5.35;;;2.38;;
51296;SDS011;37380;45.186;9.792;2023-06-24T11:28:15;4.18;;;2.72;;
51296;SDS011;37380;45.186;9.792;2023-06-24T11:30:50;4.97;;;2.42;;
51296;SDS011;37380;45.186;9.792;2023-06-24T11:33:30;4.15;;;2.40;;
51296;SDS011;37380;45.186;9.792;2023-06-24T11:35:57;8.15;;;3.80;;
51296;SDS011;37380;45.186;9.792;2023-06-24T11:38:27;2.90;;;2.33;;
51296;SDS011;37380;45.186;9.792;2023-06-24T11:41:01;6.72;;;2.85;;
51296;SDS011;37380;45.186;9.792;2023-06-24T11:43:28;2.40;;;1.95;;
51296;SDS011;37380;45.186;9.792;2023-06-24T11:45:55;5.45;;;2.05;;
51296;SDS011;37380;45.186;9.792;2023-06-24T11:48:22;8.55;;;2.35;;
51296;SDS011;37380;45.186;9.792;2023-06-24T11:50:54;5.13;;;2.40;;
51296;SDS011;37380;45.186;9.792;2023-06-24T11:53:29;6.63;;;3.13;;
51296;SDS011;37380;45.186;9.792;2023-06-24T11:56:01;3.83;;;2.00;;
51296;SDS011;37380;45.186;9.792;2023-06-24T11:58:28;6.78;;;1.98;;
51296;SDS011;37380;45.186;9.792;2023-06-24T12:00:55;4.53;;;2.80;;
51296;SDS011;37380;45.186;9.792;2023-06-24T12:03:23;3.47;;;2.30;;
51296;SDS011;37380;45.186;9.792;2023-06-24T12:05:52;4.85;;;2.30;;
51296;SDS011;37380;45.186;9.792;2023-06-24T12:08:21;9.57;;;2.42;;
51296;SDS011;37380;45.186;9.792;2023-06-24T12:10:51;2.67;;;2.33;;
51296;SDS011;37380;45.186;9.792;2023-06-24T12:13:19;2.83;;;1.98;;
51296;SDS011;37380;45.186;9.792;2023-06-24T12:15:46;5.03;;;2.25;;
51296;SDS011;37380;45.186;9.792;2023-06-24T12:18:14;3.03;;;2.20;;
51296;SDS011;37380;45.186;9.792;2023-06-24T12:20:43;4.00;;;3.10;;
51296;SDS011;37380;45.186;9.792;2023-06-24T12:23:11;5.82;;;2.42;;
51296;SDS011;37380;45.186;9.792;2023-06-24T12:25:38;2.53;;;2.33;;
51296;SDS011;37380;45.186;9.792;2023-06-24T12:28:05;2.53;;;2.17;;
51296;SDS011;37380;45.186;9.792;2023-06-24T12:30:32;1.77;;;1.67;;
51296;SDS011;37380;45.186;9.792;2023-06-24T12:33:00;2.95;;;2.10;;
51296;SDS011;37380;45.186;9.792;2023-06-24T12:35:27;2.50;;;1.92;;
51296;SDS011;37380;45.186;9.792;2023-06-24T12:37:55;6.47;;;2.50;;
51296;SDS011;37380;45.186;9.792;2023-06-24T12:40:22;3.08;;;2.13;;
51296;SDS011;37380;45.186;9.792;2023-06-24T12:42:49;13.10;;;2.30;;
51296;SDS011;37380;45.186;9.792;2023-06-24T12:45:16;4.53;;;2.38;;
51296;SDS011;37380;45.186;9.792;2023-06-24T12:47:44;2.75;;;2.28;;
51296;SDS011;37380;45.186;9.792;2023-06-24T12:50:12;6.38;;;2.25;;
51296;SDS011;37380;45.186;9.792;2023-06-24T12:52:39;12.10;;;3.05;;
51296;SDS011;37380;45.186;9.792;2023-06-24T12:55:07;1.73;;;1.63;;
51296;SDS011;37380;45.186;9.792;2023-06-24T12:57:35;6.47;;;2.22;;
51296;SDS011;37380;45.186;9.792;2023-06-24T13:00:04;4.20;;;2.10;;
51296;SDS011;37380;45.186;9.792;2023-06-24T13:02:32;2.30;;;1.58;;
51296;SDS011;37380;45.186;9.792;2023-06-24T13:05:01;4.85;;;2.17;;
51296;SDS011;37380;45.186;9.792;2023-06-24T13:07:29;5.20;;;2.33;;
51296;SDS011;37380;45.186;9.792;2023-06-24T13:09:56;3.40;;;2.67;;
51296;SDS011;37380;45.186;9.792;2023-06-24T13:12:23;12.48;;;3.13;;
51296;SDS011;37380;45.186;9.792;2023-06-24T13:14:50;2.22;;;2.03;;
51296;SDS011;37380;45.186;9.792;2023-06-24T13:17:17;6.40;;;2.67;;
51296;SDS011;37380;45.186;9.792;2023-06-24T13:19:44;2.20;;;1.55;;
51296;SDS011;37380;45.186;9.792;2023-06-24T13:22:14;3.33;;;2.13;;
51296;SDS011;37380;45.186;9.792;2023-06-24T13:24:43;10.32;;;2.20;;
51296;SDS011;37380;45.186;9.792;2023-06-24T13:27:11;10.45;;;3.90;;
51296;SDS011;37380;45.186;9.792;2023-06-24T13:29:40;2.85;;;1.83;;
51296;SDS011;37380;45.186;9.792;2023-06-24T13:32:07;2.67;;;1.85;;
51296;SDS011;37380;45.186;9.792;2023-06-24T13:34:35;4.97;;;1.90;;
51296;SDS011;37380;45.186;9.792;2023-06-24T13:37:02;3.03;;;1.98;;
51296;SDS011;37380;45.186;9.792;2023-06-24T13:39:30;4.30;;;2.40;;
51296;SDS011;37380;45.186;9.792;2023-06-24T13:41:59;7.80;;;2.00;;
51296;SDS011;37380;45.186;9.792;2023-06-24T13:44:27;3.10;;;2.08;;
51296;SDS011;37380;45.186;9.792;2023-06-24T13:47:00;3.08;;;2.08;;
51296;SDS011;37380;45.186;9.792;2023-06-24T13:49:29;3.28;;;2.10;;
51296;SDS011;37380;45.186;9.792;2023-06-24T13:51:57;5.32;;;2.08;;
51296;SDS011;37380;45.186;9.792;2023-06-24T13:54:28;2.60;;;1.80;;
51296;SDS011;37380;45.186;9.792;2023-06-24T13:56:59;5.38;;;2.35;;
51296;SDS011;37380;45.186;9.792;2023-06-24T13:59:26;2.97;;;1.75;;
51296;SDS011;37380;45.186;9.792;2023-06-24T14:01:54;4.18;;;2.30;;
51296;SDS011;37380;45.186;9.792;2023-06-24T14:04:22;2.17;;;1.98;;
51296;SDS011;37380;45.186;9.792;2023-06-24T14:06:50;2.75;;;1.80;;
51296;SDS011;37380;45.186;9.792;2023-06-24T14:09:17;3.08;;;1.80;;
51296;SDS011;37380;45.186;9.792;2023-06-24T14:11:44;6.60;;;2.00;;
51296;SDS011;37380;45.186;9.792;2023-06-24T14:14:12;1.70;;;1.42;;
51296;SDS011;37380;45.186;9.792;2023-06-24T14:16:39;3.75;;;1.90;;
51296;SDS011;37380;45.186;9.792;2023-06-24T14:19:07;3.22;;;1.88;;
51296;SDS011;37380;45.186;9.792;2023-06-24T14:21:34;2.17;;;1.98;;
51296;SDS011;37380;45.186;9.792;2023-06-24T14:24:03;4.82;;;1.98;;
51296;SDS011;37380;45.186;9.792;2023-06-24T14:26:43;2.20;;;1.85;;
51296;SDS011;37380;45.186;9.792;2023-06-24T14:29:11;2.33;;;1.80;;
51296;SDS011;37380;45.186;9.792;2023-06-24T14:31:38;2.53;;;1.63;;
51296;SDS011;37380;45.186;9.792;2023-06-24T14:34:06;2.15;;;1.70;;
51296;SDS011;37380;45.186;9.792;2023-06-24T14:36:33;3.13;;;1.73;;
51296;SDS011;37380;45.186;9.792;2023-06-24T14:39:00;4.63;;;1.40;;
51296;SDS011;37380;45.186;9.792;2023-06-24T14:41:27;2.13;;;1.90;;
51296;SDS011;37380;45.186;9.792;2023-06-24T14:43:57;5.13;;;2.55;;
51296;SDS011;37380;45.186;9.792;2023-06-24T14:46:24;2.63;;;1.70;;
51296;SDS011;37380;45.186;9.792;2023-06-24T14:48:52;10.00;;;1.60;;
51296;SDS011;37380;45.186;9.792;2023-06-24T14:51:24;3.42;;;2.20;;
51296;SDS011;37380;45.186;9.792;2023-06-24T14:53:53;2.05;;;1.17;;
51296;SDS011;37380;45.186;9.792;2023-06-24T14:56:21;1.98;;;1.40;;
51296;SDS011;37380;45.186;9.792;2023-06-24T14:58:48;3.55;;;1.80;;
51296;SDS011;37380;45.186;9.792;2023-06-24T15:01:15;1.60;;;1.38;;
51296;SDS011;37380;45.186;9.792;2023-06-24T15:03:42;5.35;;;1.33;;